Time;durP1;ratioP1;P1;durP2;ratioP2;P2;SDS_P1;SDS_P2;PMS_P1;PMS_P2;Temp;Humidity;BMP_temperature;BMP_pressure;BME280_temperature;BME280_humidity;BME280_pressure;Samples;Min_cycle;Max_cycle;Signal;HPM_P1;HPM_P2
2022/06/23 00:26:23;;;;;;;;;6.75;6.75;;;;;18.44;64.77;101324.09;4990032;28;8834;-65
2022/06/23 00:28:57;;;;;;;;;7.00;5.00;;;;;18.42;64.61;101317.22;4979667;28;8869;-66
2022/06/23 00:31:35;;;;;;;;;7.00;7.00;;;;;18.35;64.92;101320.06;4991714;28;8829;-62
2022/06/23 00:34:13;;;;;;;;;6.25;5.00;;;;;18.38;64.98;101319.56;4990843;28;8832;-64
2022/06/23 00:36:47;;;;;;;;;7.75;6.00;;;;;18.37;64.73;101319.81;4991481;28;8861;-65
2022/06/23 00:39:22;;;;;;;;;5.50;5.50;;;;;18.40;65.06;101311.19;4990231;28;8920;-64
2022/06/23 00:41:49;;;;;;;;;5.33;5.33;;;;;18.41;64.54;101313.66;4991827;28;8837;-64
2022/06/23 00:44:44;;;;;;;;;5.00;5.00;;;;;18.37;64.82;101314.38;5006703;28;8892;-64
2022/06/23 00:47:20;;;;;;;;;7.00;7.00;;;;;18.27;64.82;101310.31;5010982;28;8934;-64
2022/06/23 00:50:12;;;;;;;;;13.67;11.33;;;;;18.11;65.71;101311.00;4996026;28;9104;-64
2022/06/23 00:52:45;;;;;;;;;7.00;6.00;;;;;18.02;65.64;101305.03;4990950;28;8990;-65
2022/06/23 00:55:30;;;;;;;;;7.00;6.00;;;;;17.98;65.91;101301.09;4993324;28;8934;-64
2022/06/23 00:58:01;;;;;;;;;6.67;6.00;;;;;17.97;66.00;101298.63;4982023;28;9129;-63
2022/06/23 01:00:34;;;;;;;;;3.50;3.50;;;;;17.98;66.27;101294.81;4991505;28;8925;-63
2022/06/23 01:03:14;;;;;;;;;10.25;5.50;;;;;18.02;65.89;101291.41;4991700;28;8853;-65
2022/06/23 01:05:56;;;;;;;;;8.33;7.33;;;;;18.02;65.72;101290.56;4992085;28;8873;-61
2022/06/23 01:08:40;;;;;;;;;8.00;6.33;;;;;18.12;65.54;101299.03;5010506;28;8988;-64
2022/06/23 01:11:30;;;;;;;;;3.75;3.75;;;;;18.16;65.37;101300.22;5006445;28;8938;-64
2022/06/23 01:14:08;;;;;;;;;6.00;6.00;;;;;18.11;65.47;101307.41;4980719;28;8860;-63
2022/06/23 01:16:46;;;;;;;;;6.00;5.33;;;;;18.10;65.09;101303.03;4990331;28;8838;-64
2022/06/23 01:19:38;;;;;;;;;4.50;4.00;;;;;18.08;65.54;101300.56;4991133;28;8920;-64
2022/06/23 01:22:20;;;;;;;;;8.00;7.00;;;;;18.03;65.11;101298.53;4991019;28;8829;-63
2022/06/23 01:25:16;;;;;;;;;5.00;3.67;;;;;18.03;65.08;101298.53;4972789;28;8983;-61
2022/06/23 01:28:00;;;;;;;;;5.67;5.67;;;;;18.04;65.39;101288.47;4962602;28;9096;-65
2022/06/23 01:30:33;;;;;;;;;7.67;7.67;;;;;17.94;65.16;101285.47;5004476;28;9107;-61
2022/06/23 01:33:07;;;;;;;;;10.33;6.00;;;;;17.77;66.19;101275.22;4992946;28;9070;-63
2022/06/23 01:35:44;;;;;;;;;7.67;6.67;;;;;17.73;66.21;101282.16;4993132;28;9132;-64
2022/06/23 01:38:50;;;;;;;;;8.33;8.33;;;;;17.72;66.46;101283.22;4971393;28;9091;-64
2022/06/23 01:41:24;;;;;;;;;7.67;4.33;;;;;17.86;66.07;101288.50;4951930;28;8990;-64
2022/06/23 01:44:04;;;;;;;;;6.00;6.00;;;;;17.87;65.72;101293.75;5005709;28;8924;-64
2022/06/23 01:46:35;;;;;;;;;8.67;8.00;;;;;17.78;65.99;101295.97;4997905;28;9001;-64
2022/06/23 01:49:20;;;;;;;;;11.33;9.33;;;;;17.63;66.88;101291.97;4957435;28;9183;-65
2022/06/23 01:51:54;;;;;;;;;7.00;7.00;;;;;17.61;66.93;101300.34;4980888;28;9121;-64
2022/06/23 01:54:20;;;;;;;;;10.33;10.33;;;;;17.59;67.13;101291.59;4971752;28;9856;-64
2022/06/23 01:57:10;;;;;;;;;6.33;6.33;;;;;17.55;66.82;101290.38;4989020;28;8976;-63
2022/06/23 02:00:16;;;;;;;;;6.67;6.00;;;;;17.59;66.45;101297.03;4992362;28;9094;-62
2022/06/23 02:02:59;;;;;;;;;8.00;8.00;;;;;17.61;66.63;101297.63;4990271;28;9155;-62
2022/06/23 02:05:45;;;;;;;;;8.67;8.67;;;;;17.61;66.23;101286.72;4989768;28;9021;-63
2022/06/23 02:08:35;;;;;;;;;7.67;7.67;;;;;17.61;66.78;101284.00;4978700;28;9092;-63
2022/06/23 02:11:17;;;;;;;;;12.00;7.00;;;;;17.58;65.96;101287.19;4990834;28;9066;-64
2022/06/23 02:14:02;;;;;;;;;8.67;8.67;;;;;17.48;66.79;101292.34;4990831;28;9159;-64
2022/06/23 02:16:37;;;;;;;;;5.00;5.00;;;;;17.48;66.97;101300.53;4990069;28;8990;-64
2022/06/23 02:19:22;;;;;;;;;9.00;9.00;;;;;17.47;66.72;101301.59;4990837;28;9138;-64
2022/06/23 02:22:00;;;;;;;;;8.00;7.00;;;;;17.42;66.68;101299.56;5001899;28;9072;-65
2022/06/23 02:24:38;;;;;;;;;8.67;6.00;;;;;17.38;66.79;101292.06;4993155;28;9017;-64
2022/06/23 02:27:31;;;;;;;;;7.00;6.67;;;;;17.35;66.95;101278.91;4982379;28;8984;-64
2022/06/23 02:30:22;;;;;;;;;9.33;8.33;;;;;17.28;66.97;101276.28;4974598;28;9027;-64
2022/06/23 02:33:00;;;;;;;;;9.00;9.00;;;;;17.23;67.07;101274.25;4974670;28;9920;-64
2022/06/23 02:35:42;;;;;;;;;6.33;6.33;;;;;17.15;67.70;101273.72;4974481;28;9313;-65
2022/06/23 02:38:19;;;;;;;;;12.33;8.00;;;;;17.12;67.78;101276.88;4987189;28;8966;-65
2022/06/23 02:40:49;;;;;;;;;8.33;8.33;;;;;17.10;68.09;101277.13;4999533;28;9168;-64
2022/06/23 02:43:57;;;;;;;;;10.33;9.00;;;;;17.16;67.75;101283.53;5013582;28;9459;-64
2022/06/23 02:46:29;;;;;;;;;9.00;9.00;;;;;17.24;67.45;101283.22;4967624;28;9311;-64
2022/06/23 02:49:27;;;;;;;;;7.00;7.00;;;;;17.25;67.11;101279.44;4993621;28;9195;-64
2022/06/23 02:52:00;;;;;;;;;6.50;5.50;;;;;17.32;67.09;101276.66;4993170;28;9107;-64
2022/06/23 02:54:59;;;;;;;;;7.00;7.00;;;;;17.33;67.22;101278.31;4974278;28;8827;-62
2022/06/23 02:57:33;;;;;;;;;5.00;5.00;;;;;17.38;66.82;101275.72;5007340;28;8990;-64
2022/06/23 03:00:12;;;;;;;;;11.00;7.33;;;;;17.37;66.49;101268.63;4985788;28;9093;-64
2022/06/23 03:02:56;;;;;;;;;6.33;4.67;;;;;17.30;66.62;101258.66;4977491;28;8967;-63
2022/06/23 03:05:38;;;;;;;;;8.00;8.00;;;;;17.24;67.11;101256.03;5009618;28;9193;-62
2022/06/23 03:08:11;;;;;;;;;6.67;6.67;;;;;17.27;66.97;101261.84;4999531;28;9318;-64
2022/06/23 03:10:43;;;;;;;;;9.00;9.00;;;;;17.23;66.85;101255.19;4995940;28;9077;-64
2022/06/23 03:13:22;;;;;;;;;5.00;5.00;;;;;17.23;67.26;101251.66;4993393;28;9086;-64
2022/06/23 03:15:56;;;;;;;;;7.67;6.33;;;;;17.28;66.89;101247.16;4993930;28;9003;-64
2022/06/23 03:18:40;;;;;;;;;8.67;7.67;;;;;17.23;66.48;101249.75;5007701;28;9062;-66
2022/06/23 03:21:19;;;;;;;;;8.33;7.67;;;;;17.20;67.04;101254.81;4995804;28;9331;-62
2022/06/23 03:23:56;;;;;;;;;7.67;7.67;;;;;17.21;67.09;101254.56;5000732;28;9239;-65
2022/06/23 03:26:45;;;;;;;;;4.00;4.00;;;;;17.23;67.13;101247.03;5004691;28;9177;-65
2022/06/23 03:29:17;;;;;;;;;8.00;7.00;;;;;17.24;66.71;101239.69;5012965;28;8917;-62
2022/06/23 03:32:09;;;;;;;;;7.00;7.00;;;;;17.14;66.74;101242.97;4993124;28;9123;-64
2022/06/23 03:34:44;;;;;;;;;7.67;7.00;;;;;17.13;67.09;101249.44;5002176;28;9180;-64
2022/06/23 03:37:17;;;;;;;;;8.67;5.33;;;;;17.19;66.93;101247.72;5009008;28;9440;-65
2022/06/23 03:42:52;;;;;;;;;8.00;7.33;;;;;17.18;66.63;101244.19;4992574;28;9140;-65
2022/06/23 03:45:32;;;;;;;;;7.33;7.00;;;;;17.13;66.71;101246.72;4991804;28;9109;-64
2022/06/23 03:48:09;;;;;;;;;10.67;8.00;;;;;17.17;66.48;101253.38;4968127;28;9173;-64
2022/06/23 03:51:23;;;;;;;;;10.00;9.00;;;;;17.22;66.36;101250.00;4992868;28;9250;-65
2022/06/23 03:53:58;;;;;;;;;7.00;7.00;;;;;17.17;66.19;101252.53;4913673;29;9328;-64
2022/06/23 03:56:31;;;;;;;;;8.33;8.33;;;;;17.10;66.69;101254.53;4988193;28;9060;-62
2022/06/23 03:59:07;;;;;;;;;7.67;7.67;;;;;17.08;66.65;101245.75;4992086;28;9382;-63
2022/06/23 04:01:40;;;;;;;;;11.33;11.33;;;;;17.02;67.16;101244.78;4997293;28;9236;-63
2022/06/23 04:04:19;;;;;;;;;11.00;10.00;;;;;16.94;67.42;101237.75;4996183;28;9525;-63
2022/06/23 04:06:47;;;;;;;;;7.67;7.00;;;;;16.95;68.01;101235.88;4975118;28;9379;-63
2022/06/23 04:09:21;;;;;;;;;8.33;8.33;;;;;17.22;67.98;101237.22;4991588;28;9836;-63
2022/06/23 04:12:07;;;;;;;;;5.33;5.33;;;;;17.39;66.85;101231.16;4993107;28;9241;-62
2022/06/23 04:15:06;;;;;;;;;8.00;8.00;;;;;17.42;66.30;101226.06;5014207;23;8983;31
2022/06/23 04:17:40;;;;;;;;;9.67;8.33;;;;;17.35;66.55;101227.22;4963532;28;9061;-64
2022/06/23 04:20:15;;;;;;;;;9.67;9.67;;;;;17.24;66.77;101229.63;4945169;28;9401;-65
2022/06/23 04:22:46;;;;;;;;;11.00;11.00;;;;;17.26;66.90;101222.09;4953024;28;9079;-65
2022/06/23 04:25:18;;;;;;;;;8.67;8.67;;;;;17.28;66.95;101230.84;4957645;28;9090;-65
2022/06/23 04:27:51;;;;;;;;;7.67;7.67;;;;;17.23;66.87;101232.59;4954553;28;9163;-65
2022/06/23 04:30:20;;;;;;;;;11.00;9.00;;;;;17.16;67.69;101220.97;4949271;28;9158;-65
2022/06/23 04:32:49;;;;;;;;;7.67;7.67;;;;;17.21;67.28;101223.81;4934990;29;9077;-65
2022/06/23 04:35:20;;;;;;;;;9.00;7.33;;;;;17.23;67.31;101210.84;4938495;28;9052;-66
2022/06/23 04:37:55;;;;;;;;;9.00;9.00;;;;;17.20;67.49;101208.56;4961897;28;9252;-66
2022/06/23 04:40:28;;;;;;;;;11.00;11.00;;;;;17.17;67.53;101209.84;4941295;28;9147;-65
2022/06/23 04:43:04;;;;;;;;;9.33;9.33;;;;;17.20;67.85;101214.84;4935245;29;9346;-64
2022/06/23 04:45:43;;;;;;;;;9.67;9.00;;;;;17.27;67.43;101203.88;4934865;28;9050;-65
2022/06/23 04:48:17;;;;;;;;;11.67;11.33;;;;;17.30;66.96;101201.53;4947755;29;9163;-66
2022/06/23 04:50:52;;;;;;;;;13.33;12.67;;;;;17.35;66.97;101200.00;4934216;29;9261;-66
2022/06/23 04:53:31;;;;;;;;;10.00;9.00;;;;;17.33;66.82;101191.22;4949012;28;9193;-65
2022/06/23 04:56:18;;;;;;;;;13.33;11.00;;;;;17.25;67.00;101190.47;4949893;28;9054;-66
2022/06/23 04:58:52;;;;;;;;;11.00;11.00;;;;;17.20;67.68;101203.94;4943772;29;9170;-66
2022/06/23 05:01:22;;;;;;;;;9.67;8.00;;;;;17.23;67.52;101202.69;4934724;29;8984;-64
2022/06/23 05:03:58;;;;;;;;;4.00;4.00;;;;;17.31;67.18;101210.53;4934569;29;9738;-64
2022/06/23 05:06:47;;;;;;;;;13.33;11.33;;;;;17.39;67.10;101209.38;4942962;28;9094;-66
2022/06/23 05:09:24;;;;;;;;;8.67;8.67;;;;;17.43;66.79;101210.56;4952266;28;9245;-65
2022/06/23 05:11:55;;;;;;;;;8.33;8.33;;;;;17.45;67.21;101205.72;4953214;28;9151;-65
2022/06/23 05:14:44;;;;;;;;;11.67;10.67;;;;;17.41;67.03;101196.34;4953086;28;9160;-65
2022/06/23 05:17:20;;;;;;;;;12.33;12.33;;;;;17.32;67.45;101190.41;4952637;28;9151;-64
2022/06/23 05:19:51;;;;;;;;;10.00;10.00;;;;;17.26;67.50;101191.34;4959801;28;9027;-64
2022/06/23 05:22:40;;;;;;;;;6.67;6.33;;;;;17.24;67.94;101194.28;4953834;28;9861;-64
2022/06/23 05:25:11;;;;;;;;;9.33;8.00;;;;;17.35;67.49;101189.94;4953498;28;9022;-66
2022/06/23 05:27:38;;;;;;;;;8.00;8.00;;;;;17.43;67.20;101203.22;4939648;29;9814;-65
2022/06/23 05:30:14;;;;;;;;;10.33;9.67;;;;;17.57;66.94;101197.59;4943610;28;9004;-65
2022/06/23 05:33:04;;;;;;;;;9.67;9.00;;;;;17.70;66.43;101190.06;4954650;28;9219;-66
2022/06/23 05:35:38;;;;;;;;;12.67;11.00;;;;;17.90;65.28;101199.84;4952592;28;8933;-65
2022/06/23 05:38:18;;;;;;;;;9.00;9.00;;;;;18.16;65.18;101202.13;4936020;29;9163;-66
2022/06/23 05:40:55;;;;;;;;;9.00;6.67;;;;;18.51;63.74;101206.75;4933288;29;9077;-66
2022/06/23 05:43:22;;;;;;;;;11.00;11.00;;;;;18.67;62.63;101216.91;4948350;28;8971;-65
2022/06/23 05:45:54;;;;;;;;;9.75;7.75;;;;;18.84;61.94;101202.56;4947916;28;9004;-67
2022/06/23 05:48:24;;;;;;;;;14.00;13.33;;;;;18.95;61.45;101197.09;4952922;28;8842;-67
2022/06/23 05:51:00;;;;;;;;;12.00;10.00;;;;;18.98;61.35;101203.97;4951842;28;9152;-66
2022/06/23 05:53:34;;;;;;;;;8.00;8.00;;;;;19.01;61.21;101209.78;4951023;28;8933;-66
2022/06/23 05:56:14;;;;;;;;;12.00;10.00;;;;;18.99;60.85;101205.63;4951166;28;8933;-65
2022/06/23 05:58:53;;;;;;;;;9.33;9.33;;;;;19.00;61.15;101199.97;4968450;28;8828;-66
2022/06/23 06:01:33;;;;;;;;;9.00;8.75;;;;;19.08;60.69;101206.94;4962858;28;8915;-65
2022/06/23 06:04:04;;;;;;;;;8.25;8.25;;;;;19.14;60.60;101194.22;4942695;28;8844;-65
2022/06/23 06:06:32;;;;;;;;;8.25;8.25;;;;;19.25;60.08;101193.34;4952032;28;8834;-65
2022/06/23 06:11:50;;;;;;;;;11.25;11.25;;;;;19.32;59.38;101198.66;4950271;28;8834;-67
2022/06/23 06:14:21;;;;;;;;;11.75;9.75;;;;;19.19;59.22;101186.13;4944185;28;8894;-67
2022/06/23 06:16:48;;;;;;;;;7.50;7.50;;;;;19.18;60.08;101182.56;4943667;28;8856;-67
2022/06/23 06:19:19;;;;;;;;;11.75;11.50;;;;;19.21;59.56;101179.34;4954094;28;8818;-67
2022/06/23 06:21:47;;;;;;;;;11.67;10.00;;;;;19.12;59.47;101175.38;4952869;28;8937;-66
2022/06/23 06:24:20;;;;;;;;;8.00;7.00;;;;;19.08;59.94;101187.84;4963827;28;9016;-67
2022/06/23 06:26:51;;;;;;;;;8.50;8.25;;;;;19.13;60.25;101187.94;4959992;28;9620;-67
2022/06/23 06:29:29;;;;;;;;;13.50;10.75;;;;;19.15;59.95;101184.94;4944032;28;8855;-67
2022/06/23 06:32:20;;;;;;;;;11.50;10.00;;;;;19.06;60.39;101178.22;4942922;28;8905;-67
2022/06/23 06:34:58;;;;;;;;;12.25;10.75;;;;;19.08;61.10;101187.84;4949396;28;8916;-67
2022/06/23 06:37:31;;;;;;;;;13.00;13.00;;;;;19.11;60.81;101195.50;4951112;28;9612;-67
2022/06/23 06:40:03;;;;;;;;;7.00;7.00;;;;;19.12;61.14;101199.94;4953659;28;8955;-66
2022/06/23 06:42:35;;;;;;;;;10.75;9.75;;;;;19.19;60.88;101203.31;4955178;28;8830;-66
2022/06/23 06:45:10;;;;;;;;;8.50;8.50;;;;;19.31;60.83;101203.28;4941903;28;8832;-66
2022/06/23 06:47:38;;;;;;;;;13.50;13.00;;;;;19.34;60.67;101196.50;4963485;28;8838;-66
2022/06/23 06:50:31;;;;;;;;;11.75;9.75;;;;;19.36;60.75;101194.34;4950365;29;8858;-66
2022/06/23 06:53:04;;;;;;;;;11.25;8.75;;;;;19.43;60.50;101195.03;4946622;29;8834;-66
2022/06/23 06:55:49;;;;;;;;;9.50;9.25;;;;;19.51;60.75;101202.84;4950873;29;8927;-66
2022/06/23 06:58:39;;;;;;;;;9.50;9.50;;;;;19.60;60.22;101195.06;4948719;29;8850;-65
2022/06/23 07:01:12;;;;;;;;;10.75;10.75;;;;;19.61;60.21;101194.88;4949620;29;8818;-65
2022/06/23 07:03:43;;;;;;;;;12.75;11.25;;;;;19.66;60.11;101184.03;4945671;28;8856;-65
2022/06/23 07:06:24;;;;;;;;;8.00;8.00;;;;;19.74;60.06;101186.38;4933037;29;8818;-65
2022/06/23 07:08:58;;;;;;;;;7.25;5.75;;;;;19.83;59.88;101194.97;4948888;28;8891;-65
2022/06/23 07:11:38;;;;;;;;;10.00;10.00;;;;;19.90;59.17;101186.63;4952106;28;8852;-64
2022/06/23 07:14:11;;;;;;;;;3.75;3.75;;;;;19.97;58.59;101190.00;4953964;28;8818;-65
2022/06/23 07:16:45;;;;;;;;;9.00;9.00;;;;;20.07;58.32;101186.63;4953473;28;8826;-66
2022/06/23 07:19:40;;;;;;;;;8.75;7.25;;;;;20.18;58.44;101174.78;4952544;28;8834;-66
2022/06/23 07:22:09;;;;;;;;;11.75;9.75;;;;;20.25;58.06;101176.28;4950813;28;8870;-66
2022/06/23 07:25:17;;;;;;;;;11.00;11.00;;;;;20.32;58.03;101180.72;4953832;28;8850;-65
2022/06/23 07:27:50;;;;;;;;;7.75;7.00;;;;;20.36;57.66;101185.44;4949130;28;9019;-66
2022/06/23 07:30:37;;;;;;;;;7.00;7.00;;;;;20.40;57.10;101175.66;4951019;28;8857;-65
2022/06/23 07:33:15;;;;;;;;;13.50;11.25;;;;;20.52;57.07;101172.00;4953316;28;8882;-65
2022/06/23 07:35:51;;;;;;;;;9.50;9.50;;;;;20.55;57.04;101172.34;4948289;28;8830;-66
2022/06/23 07:38:36;;;;;;;;;13.00;12.50;;;;;20.59;57.23;101164.47;4947886;28;8847;-66
2022/06/23 07:41:17;;;;;;;;;7.75;7.75;;;;;20.62;57.28;101156.59;4944563;28;8828;-66
2022/06/23 07:44:01;;;;;;;;;10.00;10.00;;;;;20.71;56.84;101163.25;4942170;29;8930;-66
2022/06/23 07:46:30;;;;;;;;;12.25;12.25;;;;;20.72;56.79;101156.69;4946482;28;9553;-66
2022/06/23 07:48:57;;;;;;;;;7.50;7.25;;;;;20.72;56.79;101153.97;4951131;28;9558;-66
2022/06/23 07:51:25;;;;;;;;;8.00;7.75;;;;;20.76;56.96;101146.06;4948628;28;8934;-66
2022/06/23 07:53:54;;;;;;;;;6.25;5.25;;;;;20.82;57.17;101147.78;4953396;28;8842;-66
2022/06/23 07:56:25;;;;;;;;;10.00;9.75;;;;;20.83;56.74;101157.66;4956915;28;8838;-66
2022/06/23 07:58:58;;;;;;;;;7.25;7.25;;;;;20.89;56.42;101158.53;4953209;28;8845;-66
2022/06/23 08:01:41;;;;;;;;;10.25;10.25;;;;;20.86;56.62;101148.91;4952783;28;8853;-66
2022/06/23 08:04:27;;;;;;;;;12.00;9.50;;;;;20.89;56.61;101153.06;4955812;28;9548;-66
2022/06/23 08:07:01;;;;;;;;;14.50;12.50;;;;;20.84;56.57;101155.75;4953261;28;8854;-66
2022/06/23 08:09:32;;;;;;;;;12.00;10.25;;;;;20.87;56.25;101156.06;4953547;28;8946;-66
2022/06/23 08:16:49;;;;;;;;;8.25;8.25;;;;;20.87;56.11;101172.50;4946699;28;8896;-66
2022/06/23 08:17:50;;;;;;;;;10.00;10.00;;;;;20.95;55.88;101163.00;4935718;28;8866;-66
2022/06/23 08:20:21;;;;;;;;;11.00;10.50;;;;;21.03;55.74;101164.47;4960320;28;8876;-66
2022/06/23 08:22:48;;;;;;;;;10.75;10.00;;;;;21.07;55.78;101166.44;4959843;28;8894;-65
2022/06/23 08:25:16;;;;;;;;;7.50;7.50;;;;;21.12;55.89;101161.00;4960305;28;8847;-65
2022/06/23 08:27:52;;;;;;;;;9.75;9.75;;;;;21.22;55.63;101152.06;4951235;28;8823;-65
2022/06/23 08:30:20;;;;;;;;;13.50;13.00;;;;;21.29;55.51;101152.69;4958016;28;8856;-66
2022/06/23 08:32:49;;;;;;;;;12.75;10.50;;;;;21.36;55.31;101152.53;4949177;28;8914;-64
2022/06/23 08:35:30;;;;;;;;;12.25;11.00;;;;;21.46;54.68;101152.63;4946984;28;8912;-65
2022/06/23 08:38:06;;;;;;;;;9.25;9.25;;;;;21.53;54.70;101153.25;4942999;28;8814;-64
2022/06/23 08:40:44;;;;;;;;;9.75;9.50;;;;;21.64;54.31;101143.22;4952547;28;8882;-65
2022/06/23 08:43:36;;;;;;;;;9.25;8.00;;;;;21.68;54.26;101147.91;4952073;28;8821;-65
2022/06/23 08:46:14;;;;;;;;;13.75;13.25;;;;;21.70;53.99;101155.84;4941425;29;8824;-66
2022/06/23 08:48:57;;;;;;;;;10.00;10.00;;;;;21.78;54.02;101155.38;4934568;28;8909;-66
2022/06/23 08:51:44;;;;;;;;;9.00;8.25;;;;;21.87;54.09;101163.94;4952506;28;8838;-66
2022/06/23 08:54:43;;;;;;;;;10.25;9.00;;;;;22.01;54.11;101153.38;4954480;28;8838;-66
2022/06/23 08:57:18;;;;;;;;;15.50;10.25;;;;;22.14;53.72;101156.50;4954233;28;8834;-66
2022/06/23 08:59:56;;;;;;;;;8.75;8.00;;;;;22.26;53.70;101139.84;4950680;28;8913;-65
2022/06/23 09:02:49;;;;;;;;;10.00;9.25;;;;;22.31;54.04;101139.06;4962472;28;8814;-67
2022/06/23 09:05:33;;;;;;;;;9.50;8.25;;;;;22.39;53.86;101144.88;4940968;28;8944;-66
2022/06/23 09:08:32;;;;;;;;;13.00;11.25;;;;;22.44;53.71;101138.56;4949233;28;8835;-66
2022/06/23 09:11:28;;;;;;;;;13.00;12.75;;;;;22.54;53.26;101143.31;4953704;28;8837;-65
2022/06/23 09:13:55;;;;;;;;;11.25;11.25;;;;;22.61;53.13;101136.50;4932373;28;8818;-67
2022/06/23 09:16:43;;;;;;;;;13.25;11.25;;;;;22.76;52.90;101138.44;4947875;28;9537;-66
2022/06/23 09:19:32;;;;;;;;;11.00;11.00;;;;;22.79;53.03;101126.13;4950706;28;8826;-66
2022/06/23 09:22:27;;;;;;;;;11.00;10.50;;;;;22.93;52.74;101127.31;4951049;28;8872;-67
2022/06/23 09:25:06;;;;;;;;;8.75;8.25;;;;;23.03;52.72;101113.59;4947564;28;9590;-66
2022/06/23 09:28:12;;;;;;;;;12.00;9.75;;;;;23.09;52.42;101118.03;4930448;28;8836;-66
2022/06/23 09:30:52;;;;;;;;;14.50;12.25;;;;;23.18;52.05;101115.56;4953716;28;8849;-67
2022/06/23 09:34:15;;;;;;;;;7.00;7.00;;;;;23.33;52.33;101112.00;4952881;28;8976;-67
2022/06/23 09:37:02;;;;;;;;;12.75;12.75;;;;;23.42;52.12;101124.13;4856145;29;8833;-64
2022/06/23 09:39:51;;;;;;;;;11.25;10.50;;;;;23.43;51.88;101110.09;4864892;29;8861;-65
2022/06/23 09:42:32;;;;;;;;;12.00;10.75;;;;;23.51;51.26;101116.97;4940309;28;8858;-65
2022/06/23 09:45:18;;;;;;;;;15.00;13.25;;;;;23.67;50.78;101110.41;4944079;28;8846;-65
2022/06/23 09:47:44;;;;;;;;;14.00;12.75;;;;;23.75;50.41;101110.97;4952769;28;8829;-64
2022/06/23 09:50:24;;;;;;;;;10.75;10.00;;;;;23.79;50.76;101117.56;4957056;28;8852;-65
2022/06/23 09:53:24;;;;;;;;;5.50;5.50;;;;;23.84;50.58;101106.56;4951933;28;8949;-65
2022/06/23 09:56:06;;;;;;;;;11.25;11.25;;;;;24.01;50.30;101111.75;4952145;28;8925;-65
2022/06/23 09:59:01;;;;;;;;;11.75;10.25;;;;;24.16;49.39;101103.47;4950474;28;8838;-66
2022/06/23 10:01:51;;;;;;;;;17.25;14.75;;;;;24.22;49.76;101110.59;4952920;28;8842;-66
2022/06/23 10:04:33;;;;;;;;;10.25;10.25;;;;;24.27;49.49;101104.28;4958530;28;8827;-65
2022/06/23 10:07:21;;;;;;;;;14.00;14.00;;;;;24.32;49.19;101101.50;4951772;28;8842;-66
2022/06/23 10:10:26;;;;;;;;;14.25;12.50;;;;;24.49;49.24;101103.94;4951856;28;8818;-66
2022/06/23 10:13:14;;;;;;;;;12.75;11.50;;;;;24.42;48.93;101109.75;4933764;28;8832;-65
2022/06/23 10:15:56;;;;;;;;;11.25;11.00;;;;;24.40;49.32;101103.72;4939548;28;9078;-65
2022/06/23 10:18:57;;;;;;;;;12.25;11.75;;;;;24.52;49.16;101109.72;4972144;28;8824;-67
2022/06/23 10:21:36;;;;;;;;;10.00;10.00;;;;;24.56;49.03;101102.56;4958212;28;8826;-67
2022/06/23 10:24:21;;;;;;;;;12.50;12.50;;;;;24.71;48.74;101098.06;4952496;28;8830;-66
2022/06/23 10:27:26;;;;;;;;;14.25;12.50;;;;;24.86;48.05;101096.06;4952579;29;8833;-64
2022/06/23 10:30:30;;;;;;;;;14.25;14.00;;;;;24.95;48.13;101090.78;4952965;28;8960;-66
2022/06/23 10:33:22;;;;;;;;;15.25;14.75;;;;;25.04;48.14;101086.34;4960751;28;8896;-65
2022/06/23 10:36:37;;;;;;;;;9.25;8.75;;;;;25.09;48.10;101091.03;4916193;29;8931;-65
2022/06/23 10:39:41;;;;;;;;;15.50;15.00;;;;;25.20;47.61;101086.25;4933404;29;8824;-64
2022/06/23 10:42:36;;;;;;;;;16.25;16.25;;;;;25.22;47.81;101087.63;4935708;29;8908;-64
2022/06/23 10:45:17;;;;;;;;;17.00;16.00;;;;;25.31;48.29;101079.56;4947431;28;8922;-66
2022/06/23 10:48:22;;;;;;;;;13.75;13.75;;;;;25.43;47.58;101080.00;4949624;28;8826;-66
2022/06/23 10:51:01;;;;;;;;;15.00;13.75;;;;;25.49;47.64;101076.13;4955182;28;8834;-65
2022/06/23 10:53:27;;;;;;;;;13.75;13.75;;;;;25.46;48.25;101081.38;4955425;28;8888;-66
2022/06/23 10:56:19;;;;;;;;;13.50;13.00;;;;;25.46;48.76;101073.09;4955355;28;8850;-65
2022/06/23 10:59:11;;;;;;;;;15.75;14.00;;;;;25.53;48.18;101065.34;4935877;29;8844;-66
2022/06/23 11:02:15;;;;;;;;;14.00;14.00;;;;;25.61;48.04;101062.78;4936061;29;8824;-66
2022/06/23 11:04:55;;;;;;;;;16.25;16.25;;;;;25.62;48.07;101058.09;4935797;29;8850;-66
2022/06/23 11:07:31;;;;;;;;;14.25;14.25;;;;;25.70;47.68;101053.88;4936051;29;8828;-66
2022/06/23 11:10:36;;;;;;;;;15.50;14.00;;;;;25.77;48.01;101051.59;4949137;28;8811;-66
2022/06/23 11:13:24;;;;;;;;;14.50;14.25;;;;;25.89;47.22;101049.31;4960120;28;8918;-67
2022/06/23 11:16:12;;;;;;;;;12.00;11.50;;;;;25.92;47.28;101050.63;4962246;28;8836;-66
2022/06/23 11:18:55;;;;;;;;;17.00;17.00;;;;;26.06;46.40;101048.84;4935496;29;9328;-65
2022/06/23 11:21:52;;;;;;;;;14.75;14.75;;;;;26.08;46.92;101044.66;4935664;29;8836;-66
2022/06/23 11:24:47;;;;;;;;;16.75;16.00;;;;;26.17;46.89;101041.25;4939841;28;8915;-66
2022/06/23 11:27:37;;;;;;;;;14.75;14.75;;;;;26.17;46.81;101046.78;4961860;28;8827;-66
2022/06/23 11:30:14;;;;;;;;;15.25;15.25;;;;;26.26;46.52;101045.03;4972728;28;8812;-66
2022/06/23 11:32:56;;;;;;;;;15.75;15.75;;;;;26.33;46.13;101040.78;4954397;28;8854;-65
2022/06/23 11:35:38;;;;;;;;;13.00;12.25;;;;;26.33;46.34;101032.50;4940216;29;8828;-66
2022/06/23 11:38:17;;;;;;;;;12.75;12.00;;;;;26.42;46.92;101037.38;4935203;29;8839;-64
2022/06/23 11:41:09;;;;;;;;;16.00;15.25;;;;;26.39;46.82;101020.28;4935506;29;8847;-66
2022/06/23 11:44:11;;;;;;;;;10.00;10.00;;;;;26.41;47.32;101025.50;4947310;28;8896;-66
2022/06/23 11:47:06;;;;;;;;;11.50;11.50;;;;;26.48;47.01;101027.94;4934877;29;8947;-66
2022/06/23 11:49:57;;;;;;;;;12.75;12.50;;;;;26.61;46.33;101028.00;4935182;29;8831;-66
2022/06/23 11:52:27;;;;;;;;;16.00;15.25;;;;;26.72;46.13;101027.88;4936520;29;8903;-66
2022/06/23 11:55:26;;;;;;;;;17.25;12.75;;;;;26.62;46.47;101029.69;4935198;29;8874;-66
2022/06/23 11:58:13;;;;;;;;;14.00;13.50;;;;;26.66;46.77;101018.84;4916383;29;8828;-65
2022/06/23 12:00:53;;;;;;;;;16.75;13.00;;;;;26.81;46.75;101021.38;4939420;28;8876;-65
2022/06/23 12:03:47;;;;;;;;;12.00;11.00;;;;;26.86;47.10;101012.22;4955001;28;8917;-66
2022/06/23 12:06:29;;;;;;;;;18.25;18.25;;;;;26.89;46.03;101011.59;4955114;28;8810;-66
2022/06/23 12:09:19;;;;;;;;;11.50;10.50;;;;;26.89;46.03;101006.06;4945482;29;8917;-65
2022/06/23 12:11:53;;;;;;;;;11.75;11.50;;;;;27.01;45.53;101005.59;4935496;29;9586;-66
2022/06/23 12:14:20;;;;;;;;;10.75;10.75;;;;;27.27;45.27;101015.16;4947124;28;8828;-68
2022/06/23 12:16:57;;;;;;;;;10.75;10.00;;;;;27.43;44.87;101009.34;4940136;28;8812;-67
2022/06/23 12:19:36;;;;;;;;;14.25;13.25;;;;;27.54;44.43;101014.41;4943035;28;8864;-67
2022/06/23 12:22:33;;;;;;;;;8.00;8.00;;;;;27.71;44.72;101010.22;4935035;29;8844;-66
2022/06/23 12:25:06;;;;;;;;;12.25;12.25;;;;;27.74;43.82;101015.19;4946779;28;8916;-67
2022/06/23 12:27:41;;;;;;;;;11.50;11.50;;;;;27.84;43.68;101023.31;4934330;29;8832;-67
2022/06/23 12:30:13;;;;;;;;;12.50;10.00;;;;;27.91;43.85;101020.94;4945294;28;8850;-67
2022/06/23 12:32:52;;;;;;;;;12.25;11.00;;;;;27.92;44.00;101013.47;4936703;28;8864;-66
2022/06/23 12:35:29;;;;;;;;;11.25;10.25;;;;;28.03;43.41;101012.94;4952760;28;8850;-66
2022/06/23 12:38:05;;;;;;;;;11.25;9.75;;;;;28.06;43.55;101000.44;4953162;28;8834;-67
2022/06/23 12:40:48;;;;;;;;;12.00;11.00;;;;;28.14;42.99;100996.16;4948854;29;8840;-66
2022/06/23 12:43:43;;;;;;;;;13.75;13.75;;;;;28.16;43.30;100996.66;4940333;28;8838;-67
2022/06/23 12:46:33;;;;;;;;;13.00;13.00;;;;;28.24;43.79;100990.41;4936091;28;8846;-67
2022/06/23 12:49:18;;;;;;;;;14.25;14.25;;;;;28.22;43.46;100989.88;4953301;28;8829;-67
2022/06/23 12:52:12;;;;;;;;;11.25;11.25;;;;;28.30;43.48;100983.63;4938793;29;8902;-66
2022/06/23 12:54:58;;;;;;;;;10.25;10.25;;;;;28.35;43.57;100989.03;4950812;28;8810;-66
2022/06/23 12:57:44;;;;;;;;;11.25;11.25;;;;;28.31;43.63;100986.06;4953089;28;8830;-67
2022/06/23 13:00:19;;;;;;;;;13.25;13.25;;;;;28.31;43.02;100993.56;4952463;28;8829;-67
2022/06/23 13:02:59;;;;;;;;;13.00;10.50;;;;;28.30;42.98;100989.16;4951536;28;8826;-67